Time;durP1;ratioP1;P1;durP2;ratioP2;P2;SDS_P1;SDS_P2;PMS_P1;PMS_P2;Temp;Humidity;BMP_temperature;BMP_pressure;BME280_temperature;BME280_humidity;BME280_pressure;Samples;Min_cycle;Max_cycle;Signal;HPM_P1;HPM_P2
2023/01/01 00:02:15;;;;;;;309.70;247.95;;;;;;;;;;5045428;28;20410;-86
2023/01/01 00:04:41;;;;;;;364.52;289.23;;;;;;;;;;5046513;28;20396;-85
2023/01/01 00:07:07;;;;;;;363.10;288.20;;;;;;;;;;5051201;28;20381;-86
2023/01/01 00:12:18;;;;;;;332.38;264.70;;;;;;;;;;5051241;28;20415;-86
2023/01/01 00:14:44;;;;;;;299.27;241.70;;;;;;;;;;5051063;28;20462;-85
2023/01/01 00:17:10;;;;;;;351.33;277.27;;;;;;;;;;5051165;28;20843;-85
2023/01/01 00:19:37;;;;;;;243.50;195.87;;;;;;;;;;5050994;28;20378;-86
2023/01/01 00:22:03;;;;;;;311.17;232.23;;;;;;;;;;5051020;28;20392;-84
2023/01/01 00:24:29;;;;;;;242.07;179.60;;;;;;;;;;5050975;28;20747;-85
2023/01/01 00:26:55;;;;;;;300.48;225.68;;;;;;;;;;5050911;28;20406;-85
2023/01/01 00:29:21;;;;;;;291.70;220.02;;;;;;;;;;5033104;28;20863;-86
2023/01/01 00:31:47;;;;;;;233.63;169.15;;;;;;;;;;5050749;28;20431;-86
2023/01/01 00:34:13;;;;;;;256.05;189.85;;;;;;;;;;5050668;28;20385;-85
2023/01/01 00:36:39;;;;;;;261.03;201.63;;;;;;;;;;5048147;28;20881;-85
2023/01/01 00:39:05;;;;;;;347.10;246.30;;;;;;;;;;5050752;28;20390;-86
2023/01/01 00:41:31;;;;;;;308.02;239.98;;;;;;;;;;5050888;28;20397;-85
2023/01/01 00:43:57;;;;;;;433.93;346.50;;;;;;;;;;5053647;28;20389;-87
2023/01/01 00:46:23;;;;;;;455.48;358.80;;;;;;;;;;5054441;28;20905;-86
2023/01/01 00:48:49;;;;;;;463.65;362.30;;;;;;;;;;5054435;28;20413;-85
2023/01/01 00:51:15;;;;;;;452.80;353.40;;;;;;;;;;5054412;28;20392;-86
2023/01/01 00:53:41;;;;;;;483.88;386.67;;;;;;;;;;5054444;28;20381;-86
2023/01/01 00:56:07;;;;;;;465.20;376.38;;;;;;;;;;5054317;28;20477;-86
2023/01/01 00:58:33;;;;;;;442.10;358.27;;;;;;;;;;5054260;28;20498;-87
2023/01/01 01:00:59;;;;;;;425.33;332.20;;;;;;;;;;5053962;28;20794;-86
2023/01/01 01:03:29;;;;;;;476.10;380.25;;;;;;;;;;5054219;28;20770;-85
2023/01/01 01:05:59;;;;;;;388.73;295.73;;;;;;;;;;5054148;28;20496;-85
2023/01/01 01:08:29;;;;;;;410.88;310.70;;;;;;;;;;5051746;28;20456;-86
2023/01/01 01:10:55;;;;;;;431.30;336.85;;;;;;;;;;5053995;28;20805;-86
2023/01/01 01:13:21;;;;;;;396.80;300.98;;;;;;;;;;5052180;28;20465;-86
2023/01/01 01:15:47;;;;;;;356.45;272.13;;;;;;;;;;5054035;28;20385;-85
2023/01/01 01:18:13;;;;;;;371.20;272.13;;;;;;;;;;5053808;28;20428;-85
2023/01/01 01:20:40;;;;;;;360.85;271.98;;;;;;;;;;5053812;28;20389;-86
2023/01/01 01:23:05;;;;;;;371.65;284.10;;;;;;;;;;5053888;28;20460;-86
2023/01/01 01:25:31;;;;;;;274.00;212.85;;;;;;;;;;5053674;28;20509;-86
2023/01/01 01:27:57;;;;;;;262.58;192.35;;;;;;;;;;5053785;28;20373;-86
2023/01/01 01:30:23;;;;;;;292.97;207.77;;;;;;;;;;5053530;28;20870;-86
2023/01/01 01:32:49;;;;;;;288.13;199.40;;;;;;;;;;5053626;28;20518;-85
2023/01/01 01:35:15;;;;;;;239.15;170.65;;;;;;;;;;5053567;28;20377;-86
2023/01/01 01:37:41;;;;;;;293.70;201.20;;;;;;;;;;5053536;28;20382;-86
2023/01/01 01:40:08;;;;;;;283.98;196.85;;;;;;;;;;5053469;28;20909;-86
2023/01/01 01:42:34;;;;;;;235.90;165.43;;;;;;;;;;5053479;28;20384;-86
2023/01/01 01:45:01;;;;;;;313.88;235.20;;;;;;;;;;5053301;28;20401;-86
2023/01/01 01:47:27;;;;;;;270.63;211.05;;;;;;;;;;5053454;28;20385;-86
2023/01/01 01:49:58;;;;;;;240.85;184.48;;;;;;;;;;5053120;28;20400;-86
2023/01/01 01:52:25;;;;;;;270.58;211.60;;;;;;;;;;5052815;28;20413;-85
2023/01/01 01:54:52;;;;;;;241.83;188.77;;;;;;;;;;5048230;28;20396;-87
2023/01/01 01:57:18;;;;;;;286.25;210.70;;;;;;;;;;5053244;28;20382;-86
2023/01/01 01:59:47;;;;;;;210.95;161.27;;;;;;;;;;5052902;28;20381;-86
2023/01/01 02:02:28;;;;;;;242.88;183.23;;;;;;;;;;5053144;28;20389;-86
2023/01/01 02:04:54;;;;;;;213.85;160.52;;;;;;;;;;5052969;28;20417;-86
2023/01/01 02:07:21;;;;;;;221.23;162.38;;;;;;;;;;5053127;28;20460;-86
2023/01/01 02:09:47;;;;;;;189.50;146.93;;;;;;;;;;5052816;28;20435;-86
2023/01/01 02:12:13;;;;;;;174.73;137.17;;;;;;;;;;5052962;28;20743;-86
2023/01/01 02:14:39;;;;;;;167.50;131.60;;;;;;;;;;5052924;28;20369;-87
2023/01/01 02:17:08;;;;;;;198.27;148.73;;;;;;;;;;5052703;28;20378;-86
2023/01/01 02:20:00;;;;;;;160.50;126.18;;;;;;;;;;5052528;28;20386;-86
2023/01/01 02:22:36;;;;;;;171.57;134.23;;;;;;;;;;5052766;28;20423;-86
2023/01/01 02:25:08;;;;;;;172.83;136.60;;;;;;;;;;5052556;28;20874;-86
2023/01/01 02:27:52;;;;;;;183.20;145.52;;;;;;;;;;5052587;28;20385;-85
2023/01/01 02:30:19;;;;;;;157.40;127.80;;;;;;;;;;5052422;28;20464;-85
2023/01/01 02:32:47;;;;;;;179.50;142.38;;;;;;;;;;5052489;28;20373;-87
2023/01/01 02:35:34;;;;;;;189.90;146.03;;;;;;;;;;5052410;28;20382;-85
2023/01/01 02:38:05;;;;;;;155.73;125.13;;;;;;;;;;5052423;28;20377;-85
2023/01/01 02:40:33;;;;;;;156.50;124.22;;;;;;;;;;5050478;28;20469;-87
2023/01/01 02:42:59;;;;;;;168.20;132.20;;;;;;;;;;5052366;28;20476;-86
2023/01/01 02:45:25;;;;;;;154.27;123.82;;;;;;;;;;5052190;28;20501;-86
2023/01/01 02:47:51;;;;;;;157.85;128.63;;;;;;;;;;5052180;28;20397;-87
2023/01/01 02:50:23;;;;;;;162.65;126.18;;;;;;;;;;5052228;28;20381;-85
2023/01/01 02:53:08;;;;;;;160.95;126.65;;;;;;;;;;5034098;28;20400;-85
2023/01/01 02:55:46;;;;;;;136.55;109.35;;;;;;;;;;5049320;28;20397;-85
2023/01/01 03:01:09;;;;;;;133.02;106.63;;;;;;;;;;5036636;28;20473;-86
2023/01/01 03:03:40;;;;;;;133.30;111.85;;;;;;;;;;5037287;28;20374;-86
2023/01/01 03:06:35;;;;;;;130.65;107.25;;;;;;;;;;5051065;28;20402;-86
2023/01/01 03:09:20;;;;;;;142.70;112.77;;;;;;;;;;5030670;28;20381;-85
2023/01/01 03:11:50;;;;;;;123.22;100.25;;;;;;;;;;5051677;28;20415;-85
2023/01/01 03:14:31;;;;;;;120.45;99.22;;;;;;;;;;5048966;28;20718;-86
2023/01/01 03:16:59;;;;;;;138.70;110.00;;;;;;;;;;5049993;28;20381;-85
2023/01/01 03:19:28;;;;;;;144.35;113.68;;;;;;;;;;5051641;28;20846;-87
2023/01/01 03:22:05;;;;;;;146.85;117.72;;;;;;;;;;5033731;28;20905;-86
2023/01/01 03:24:38;;;;;;;141.38;115.60;;;;;;;;;;5051689;28;20420;-85
2023/01/01 03:27:09;;;;;;;158.68;127.80;;;;;;;;;;5051558;28;20390;-85
2023/01/01 03:29:39;;;;;;;160.48;126.88;;;;;;;;;;5051548;28;20369;-85
2023/01/01 03:32:06;;;;;;;147.27;119.40;;;;;;;;;;5051382;28;20413;-86
2023/01/01 03:34:35;;;;;;;143.73;117.05;;;;;;;;;;5051538;28;20377;-86
2023/01/01 03:37:04;;;;;;;165.52;132.70;;;;;;;;;;5051455;28;20381;-85
2023/01/01 03:39:33;;;;;;;158.63;127.75;;;;;;;;;;5051301;28;20792;-86
2023/01/01 03:42:22;;;;;;;149.88;120.57;;;;;;;;;;5051415;28;20377;-86
2023/01/01 03:44:56;;;;;;;131.60;106.50;;;;;;;;;;5036827;28;20378;-86
2023/01/01 03:47:23;;;;;;;127.60;106.38;;;;;;;;;;5044761;28;20527;-85
2023/01/01 03:49:49;;;;;;;160.43;127.57;;;;;;;;;;5051238;28;20382;-86
2023/01/01 03:52:35;;;;;;;132.52;110.22;;;;;;;;;;5051431;28;20376;-86
2023/01/01 03:55:04;;;;;;;134.20;110.67;;;;;;;;;;5049477;28;20410;-86
2023/01/01 03:57:29;;;;;;;158.75;127.13;;;;;;;;;;5044322;28;20382;-86
2023/01/01 03:59:58;;;;;;;145.05;119.72;;;;;;;;;;5051319;28;20481;-86
2023/01/01 04:02:28;;;;;;;158.68;124.38;;;;;;;;;;5051268;28;20385;-86
2023/01/01 04:04:54;;;;;;;144.27;114.78;;;;;;;;;;5051082;28;20374;-87
2023/01/01 04:07:21;;;;;;;179.57;135.70;;;;;;;;;;5051192;28;20413;-86
2023/01/01 04:09:49;;;;;;;148.02;114.00;;;;;;;;;;5051357;28;20373;-86
2023/01/01 04:12:16;;;;;;;192.13;140.95;;;;;;;;;;5051168;28;20413;-85
2023/01/01 04:14:42;;;;;;;169.45;130.07;;;;;;;;;;5051106;28;20504;-86
2023/01/01 04:17:09;;;;;;;147.20;114.30;;;;;;;;;;5052718;28;20851;-86
2023/01/01 04:19:35;;;;;;;167.27;126.80;;;;;;;;;;5037116;28;20386;-86
2023/01/01 04:22:01;;;;;;;144.68;112.60;;;;;;;;;;5054974;28;20411;-85
2023/01/01 04:24:28;;;;;;;144.98;114.75;;;;;;;;;;5037044;28;20465;-86
2023/01/01 04:26:54;;;;;;;162.17;128.07;;;;;;;;;;5054824;28;20405;-87
2023/01/01 04:29:20;;;;;;;138.00;112.53;;;;;;;;;;5054781;28;20855;-86
2023/01/01 04:31:46;;;;;;;124.57;103.82;;;;;;;;;;5054736;28;20385;-85
2023/01/01 04:34:12;;;;;;;130.30;104.30;;;;;;;;;;5053567;28;20386;-87
2023/01/01 04:36:38;;;;;;;160.43;123.65;;;;;;;;;;5042583;28;20457;-87
2023/01/01 04:39:04;;;;;;;153.88;122.65;;;;;;;;;;5046507;28;20393;-85
2023/01/01 04:41:31;;;;;;;146.40;115.00;;;;;;;;;;5048371;28;20929;-86
2023/01/01 04:43:57;;;;;;;123.03;97.07;;;;;;;;;;5053850;28;20377;-85
2023/01/01 04:46:23;;;;;;;122.82;97.57;;;;;;;;;;5053269;28;20420;-87
2023/01/01 04:48:49;;;;;;;112.65;90.68;;;;;;;;;;5054474;28;20381;-87
2023/01/01 04:51:16;;;;;;;109.43;90.88;;;;;;;;;;5054445;28;20382;-85
2023/01/01 04:53:42;;;;;;;105.10;86.10;;;;;;;;;;5054501;28;20444;-86
2023/01/01 04:56:09;;;;;;;105.88;86.35;;;;;;;;;;5054405;28;20385;-85
2023/01/01 04:58:36;;;;;;;92.55;72.43;;;;;;;;;;5054357;28;20476;-87
2023/01/01 05:01:02;;;;;;;99.10;79.10;;;;;;;;;;5054084;28;20810;-86
2023/01/01 05:03:29;;;;;;;76.40;63.30;;;;;;;;;;5054291;28;20381;-85
2023/01/01 05:06:08;;;;;;;80.30;65.90;;;;;;;;;;5048928;28;20835;-85
2023/01/01 05:08:35;;;;;;;64.47;56.08;;;;;;;;;;5053435;28;20374;-86
2023/01/01 05:11:01;;;;;;;65.15;55.67;;;;;;;;;;5054094;28;20445;-87
2023/01/01 05:13:27;;;;;;;70.22;59.33;;;;;;;;;;5054056;28;20751;-86
2023/01/01 05:15:53;;;;;;;61.45;52.35;;;;;;;;;;5054035;28;20385;-87
2023/01/01 05:18:19;;;;;;;60.10;53.65;;;;;;;;;;5053916;28;20381;-87
2023/01/01 05:20:45;;;;;;;59.50;52.97;;;;;;;;;;5050394;28;20400;-86
2023/01/01 05:23:11;;;;;;;55.70;49.37;;;;;;;;;;5054009;28;20421;-86
2023/01/01 05:25:37;;;;;;;51.78;46.22;;;;;;;;;;5053806;28;20763;-87
2023/01/01 05:28:03;;;;;;;48.35;43.35;;;;;;;;;;5053129;28;20396;-86
2023/01/01 05:30:29;;;;;;;53.53;47.88;;;;;;;;;;5053493;28;20374;-86
2023/01/01 05:32:56;;;;;;;45.85;41.30;;;;;;;;;;5053719;28;20382;-87
2023/01/01 05:35:22;;;;;;;45.05;40.28;;;;;;;;;;5053756;28;20377;-86
2023/01/01 05:37:48;;;;;;;45.42;40.53;;;;;;;;;;5036026;28;20392;-87
2023/01/01 05:40:14;;;;;;;41.70;37.17;;;;;;;;;;5053570;28;20793;-86
2023/01/01 05:42:39;;;;;;;43.47;39.05;;;;;;;;;;5051788;28;20397;-86
2023/01/01 05:45:06;;;;;;;42.47;38.17;;;;;;;;;;5053442;28;20409;-87
2023/01/01 05:47:32;;;;;;;37.30;33.50;;;;;;;;;;5053395;28;20427;-87
2023/01/01 05:49:58;;;;;;;40.67;36.38;;;;;;;;;;5053338;28;20766;-87
2023/01/01 05:52:24;;;;;;;40.13;35.83;;;;;;;;;;5053430;28;20378;-85
2023/01/01 05:54:50;;;;;;;41.83;37.30;;;;;;;;;;5053249;28;20908;-86
2023/01/01 05:57:16;;;;;;;39.72;35.45;;;;;;;;;;5053312;28;20386;-86
2023/01/01 05:59:42;;;;;;;42.73;37.90;;;;;;;;;;5053097;28;20385;-86
2023/01/01 06:02:08;;;;;;;39.75;35.67;;;;;;;;;;5053037;28;20935;-86
2023/01/01 06:04:34;;;;;;;43.50;37.95;;;;;;;;;;5041146;28;20391;-86
2023/01/01 06:06:59;;;;;;;34.07;30.53;;;;;;;;;;5052988;28;20402;-86
2023/01/01 06:09:27;;;;;;;39.33;35.05;;;;;;;;;;5052962;28;20515;-87
2023/01/01 06:11:53;;;;;;;37.90;33.80;;;;;;;;;;5052967;28;20948;-87
2023/01/01 06:14:18;;;;;;;35.55;31.75;;;;;;;;;;5052938;28;20417;-86
2023/01/01 06:16:44;;;;;;;38.75;34.83;;;;;;;;;;5052739;28;20476;-87
2023/01/01 06:19:10;;;;;;;34.78;31.05;;;;;;;;;;5052768;28;20377;-87
2023/01/01 06:21:36;;;;;;;34.60;31.10;;;;;;;;;;5052699;28;20393;-86
2023/01/01 06:24:02;;;;;;;33.33;29.95;;;;;;;;;;5052742;28;20469;-86
2023/01/01 06:26:30;;;;;;;36.00;32.40;;;;;;;;;;5056115;28;20496;-87
2023/01/01 06:28:57;;;;;;;50.17;41.53;;;;;;;;;;5052554;28;20380;-85
2023/01/01 06:31:23;;;;;;;56.27;44.47;;;;;;;;;;5052581;28;20480;-87
2023/01/01 06:33:52;;;;;;;48.05;39.22;;;;;;;;;;5049874;28;20386;-86
2023/01/01 06:36:20;;;;;;;41.53;35.42;;;;;;;;;;5052489;28;20835;-86
2023/01/01 06:38:47;;;;;;;40.33;35.22;;;;;;;;;;5052174;28;20461;-85
2023/01/01 06:41:14;;;;;;;38.33;33.20;;;;;;;;;;5052376;28;20385;-86
2023/01/01 06:43:40;;;;;;;33.90;30.30;;;;;;;;;;5052303;28;20382;-86
2023/01/01 06:46:08;;;;;;;35.58;30.17;;;;;;;;;;5051978;28;20413;-86
2023/01/01 06:48:35;;;;;;;32.33;28.73;;;;;;;;;;5052296;28;20377;-87
2023/01/01 06:51:12;;;;;;;31.25;27.95;;;;;;;;;;5051913;28;20680;-86
2023/01/01 06:53:39;;;;;;;30.40;27.10;;;;;;;;;;5052210;28;20377;-86
2023/01/01 06:56:05;;;;;;;28.05;25.05;;;;;;;;;;5052108;28;20400;-85
2023/01/01 06:58:31;;;;;;;30.30;26.65;;;;;;;;;;5052242;28;20936;-86
2023/01/01 07:01:11;;;;;;;27.27;24.48;;;;;;;;;;5051890;28;20787;-86
2023/01/01 07:03:37;;;;;;;28.83;25.17;;;;;;;;;;5052141;28;20715;-86
2023/01/01 07:06:03;;;;;;;24.63;22.02;;;;;;;;;;5051996;28;20408;-86
2023/01/01 07:08:29;;;;;;;27.52;24.63;;;;;;;;;;5040631;28;20785;-85
2023/01/01 07:10:56;;;;;;;24.60;22.13;;;;;;;;;;5034324;28;20409;-86
2023/01/01 07:13:26;;;;;;;22.83;20.52;;;;;;;;;;5052954;28;20385;-86
2023/01/01 07:15:52;;;;;;;23.77;21.38;;;;;;;;;;5051824;28;20539;-86
2023/01/01 07:18:19;;;;;;;21.20;19.20;;;;;;;;;;5051834;28;20389;-86
2023/01/01 07:20:48;;;;;;;21.27;19.17;;;;;;;;;;5051785;28;20386;-87
2023/01/01 07:23:14;;;;;;;21.67;19.58;;;;;;;;;;5051749;28;20418;-86
2023/01/01 07:25:41;;;;;;;20.42;18.42;;;;;;;;;;5051738;28;20412;-86
2023/01/01 07:28:07;;;;;;;19.38;17.65;;;;;;;;;;5051812;28;20385;-86
2023/01/01 07:30:33;;;;;;;21.85;19.75;;;;;;;;;;5042372;28;20409;-86
2023/01/01 07:32:59;;;;;;;23.30;20.80;;;;;;;;;;5051657;28;20791;-86
2023/01/01 07:35:25;;;;;;;26.73;23.33;;;;;;;;;;5051662;28;20394;-86
2023/01/01 07:37:51;;;;;;;23.92;21.42;;;;;;;;;;5051625;28;20389;-87
2023/01/01 07:40:17;;;;;;;22.83;20.52;;;;;;;;;;5051427;28;20393;-86
2023/01/01 07:42:43;;;;;;;24.08;21.48;;;;;;;;;;5051475;28;20377;-86
2023/01/01 07:45:11;;;;;;;20.58;18.52;;;;;;;;;;5051417;28;20492;-86
2023/01/01 07:47:37;;;;;;;20.50;18.45;;;;;;;;;;5050811;28;20388;-86
2023/01/01 07:50:03;;;;;;;21.02;18.90;;;;;;;;;;5049126;28;20374;-85
2023/01/01 07:52:29;;;;;;;23.83;21.35;;;;;;;;;;5056042;28;20424;-85
2023/01/01 07:54:55;;;;;;;20.75;18.65;;;;;;;;;;5058060;28;20763;-87
2023/01/01 07:57:21;;;;;;;26.20;21.43;;;;;;;;;;5058139;28;20396;-86
2023/01/01 07:59:47;;;;;;;22.60;20.15;;;;;;;;;;5057724;28;20373;-86
2023/01/01 08:02:13;;;;;;;20.58;18.60;;;;;;;;;;5055918;28;20825;-86
2023/01/01 08:04:39;;;;;;;20.50;18.45;;;;;;;;;;5057917;28;20377;-86
2023/01/01 08:07:05;;;;;;;19.17;17.40;;;;;;;;;;5057940;28;20428;-87
2023/01/01 08:09:31;;;;;;;17.83;16.23;;;;;;;;;;5057854;28;20877;-86
2023/01/01 08:11:57;;;;;;;20.25;18.15;;;;;;;;;;5057854;28;20381;-87
2023/01/01 08:14:24;;;;;;;21.40;19.20;;;;;;;;;;5058086;28;20381;-87
2023/01/01 08:16:50;;;;;;;22.00;19.42;;;;;;;;;;5057818;28;20384;-86
2023/01/01 08:19:16;;;;;;;21.27;19.08;;;;;;;;;;5057805;28;20384;-87
2023/01/01 08:21:42;;;;;;;22.73;20.42;;;;;;;;;;5057925;28;20381;-87
2023/01/01 08:24:08;;;;;;;21.63;19.30;;;;;;;;;;5057872;28;20756;-85
2023/01/01 08:26:36;;;;;;;25.90;22.42;;;;;;;;;;5039960;28;20405;-86
2023/01/01 08:29:03;;;;;;;27.00;23.23;;;;;;;;;;5057748;28;20381;-86
2023/01/01 08:31:29;;;;;;;33.25;23.27;;;;;;;;;;5057709;28;20734;-86
2023/01/01 08:33:55;;;;;;;28.25;23.38;;;;;;;;;;5057752;28;20785;-86
2023/01/01 08:36:21;;;;;;;28.50;22.77;;;;;;;;;;5051655;28;20381;-86
2023/01/01 08:38:47;;;;;;;32.90;25.42;;;;;;;;;;5057538;28;20381;-85
2023/01/01 08:41:13;;;;;;;29.98;24.52;;;;;;;;;;5057753;28;20454;-85
2023/01/01 08:43:39;;;;;;;30.05;23.90;;;;;;;;;;5057696;28;20377;-85
2023/01/01 08:46:05;;;;;;;30.55;24.58;;;;;;;;;;5057573;28;20894;-86
2023/01/01 08:48:31;;;;;;;27.87;22.80;;;;;;;;;;5057639;28;20384;-86
2023/01/01 08:51:01;;;;;;;25.52;21.30;;;;;;;;;;5057504;28;20397;-85
2023/01/01 08:53:28;;;;;;;26.95;21.33;;;;;;;;;;5058024;28;20381;-86
2023/01/01 08:56:02;;;;;;;23.88;20.85;;;;;;;;;;5057652;28;20416;-86
2023/01/01 08:58:29;;;;;;;26.40;21.90;;;;;;;;;;5057548;28;20381;-86
2023/01/01 09:00:55;;;;;;;27.58;21.92;;;;;;;;;;5057294;28;20763;-86
2023/01/01 09:03:22;;;;;;;23.77;21.20;;;;;;;;;;5054869;28;20381;-85
2023/01/01 09:05:48;;;;;;;27.23;24.10;;;;;;;;;;5054374;28;20802;-85
2023/01/01 09:08:14;;;;;;;24.05;21.10;;;;;;;;;;5054218;28;20393;-87
2023/01/01 09:10:42;;;;;;;31.65;24.55;;;;;;;;;;5054280;28;20469;-86
2023/01/01 09:13:08;;;;;;;25.20;20.52;;;;;;;;;;5036581;28;20734;-86
2023/01/01 09:15:34;;;;;;;25.33;21.67;;;;;;;;;;5046783;28;20480;-86
2023/01/01 09:18:00;;;;;;;30.05;23.25;;;;;;;;;;5054057;28;20447;-85
2023/01/01 09:20:26;;;;;;;29.85;22.42;;;;;;;;;;5053984;28;20385;-86
2023/01/01 09:22:52;;;;;;;22.77;19.67;;;;;;;;;;5054150;28;20530;-85
2023/01/01 09:25:18;;;;;;;28.63;22.60;;;;;;;;;;5053870;28;20405;-86
2023/01/01 09:27:44;;;;;;;23.77;20.98;;;;;;;;;;5053967;28;20381;-85
2023/01/01 09:30:10;;;;;;;25.60;20.85;;;;;;;;;;5040304;28;20384;-85
2023/01/01 09:32:36;;;;;;;24.50;21.50;;;;;;;;;;5053923;28;20382;-85
2023/01/01 09:35:02;;;;;;;23.63;20.35;;;;;;;;;;5053819;28;20392;-84
2023/01/01 09:37:28;;;;;;;20.42;18.30;;;;;;;;;;5053722;28;20392;-85
2023/01/01 09:39:54;;;;;;;22.30;19.63;;;;;;;;;;5053755;28;20378;-84
2023/01/01 09:42:26;;;;;;;23.35;19.73;;;;;;;;;;5053633;28;20381;-84
2023/01/01 09:44:55;;;;;;;21.88;19.00;;;;;;;;;;5053633;28;20378;-84
2023/01/01 09:47:33;;;;;;;27.08;21.27;;;;;;;;;;5053557;28;20396;-84
2023/01/01 09:50:26;;;;;;;24.40;21.10;;;;;;;;;;5053449;28;20373;-84
2023/01/01 09:52:56;;;;;;;23.67;20.98;;;;;;;;;;5008223;28;20402;-84
2023/01/01 09:55:26;;;;;;;24.65;22.00;;;;;;;;;;5052027;28;20381;-84
2023/01/01 09:57:52;;;;;;;23.13;20.73;;;;;;;;;;5051462;28;20389;-84
2023/01/01 10:00:18;;;;;;;22.80;20.40;;;;;;;;;;5053347;28;20417;-85
2023/01/01 10:02:50;;;;;;;24.17;21.48;;;;;;;;;;5053348;28;20463;-84
2023/01/01 10:05:35;;;;;;;29.35;24.05;;;;;;;;;;5053060;28;20445;-84
2023/01/01 10:08:20;;;;;;;28.87;24.33;;;;;;;;;;5053192;28;20369;-83
2023/01/01 10:10:57;;;;;;;25.10;20.42;;;;;;;;;;5053120;28;20380;-85
2023/01/01 10:13:36;;;;;;;21.75;19.40;;;;;;;;;;5053016;28;20851;-85
2023/01/01 10:16:10;;;;;;;21.35;19.15;;;;;;;;;;5053567;28;20381;-84
2023/01/01 10:18:38;;;;;;;24.30;21.90;;;;;;;;;;5057209;28;20381;-85
2023/01/01 10:21:07;;;;;;;62.35;47.72;;;;;;;;;;5052776;28;20412;-84
2023/01/01 10:23:51;;;;;;;23.93;21.47;;;;;;;;;;5052450;28;20396;-83
2023/01/01 10:26:20;;;;;;;22.38;19.98;;;;;;;;;;5052843;28;20870;-83
2023/01/01 10:28:54;;;;;;;21.03;18.90;;;;;;;;;;5052662;28;20381;-84
2023/01/01 10:31:29;;;;;;;22.00;19.67;;;;;;;;;;5052789;28;20378;-84
2023/01/01 10:33:55;;;;;;;19.10;17.10;;;;;;;;;;5052651;28;20885;-84
2023/01/01 10:36:21;;;;;;;18.35;16.48;;;;;;;;;;5052668;28;20390;-85
2023/01/01 10:38:50;;;;;;;16.63;15.00;;;;;;;;;;5051631;28;20386;-83
2023/01/01 10:41:16;;;;;;;15.80;14.20;;;;;;;;;;5043193;28;20908;-84
2023/01/01 10:43:44;;;;;;;15.45;13.95;;;;;;;;;;5052565;28;20400;-84
2023/01/01 10:46:15;;;;;;;14.82;13.43;;;;;;;;;;5052343;28;20898;-84
2023/01/01 10:48:53;;;;;;;12.88;11.23;;;;;;;;;;5052485;28;20421;-84
2023/01/01 10:51:23;;;;;;;11.02;10.00;;;;;;;;;;5052390;28;20376;-84
2023/01/01 10:53:51;;;;;;;11.35;9.20;;;;;;;;;;5052326;28;20381;-84
2023/01/01 10:56:21;;;;;;;10.18;9.30;;;;;;;;;;5052266;28;20381;-84
2023/01/01 10:58:54;;;;;;;9.43;8.52;;;;;;;;;;5052098;28;20793;-84
2023/01/01 11:01:22;;;;;;;9.02;8.05;;;;;;;;;;5051832;28;20405;-84
2023/01/01 11:03:56;;;;;;;8.48;7.78;;;;;;;;;;5052131;28;20439;-84
2023/01/01 11:06:21;;;;;;;8.50;7.70;;;;;;;;;;5051913;28;20409;-84
2023/01/01 11:08:51;;;;;;;8.70;8.00;;;;;;;;;;5050968;28;20457;-84
2023/01/01 11:11:21;;;;;;;9.00;8.10;;;;;;;;;;5047775;28;20374;-84
2023/01/01 11:13:50;;;;;;;8.30;7.50;;;;;;;;;;5051988;28;20373;-84
2023/01/01 11:16:16;;;;;;;8.18;7.38;;;;;;;;;;5051916;28;20378;-84
2023/01/01 11:18:42;;;;;;;7.80;7.00;;;;;;;;;;5051689;28;20953;-84
2023/01/01 11:21:08;;;;;;;7.50;6.80;;;;;;;;;;5051786;28;20862;-84
2023/01/01 11:23:36;;;;;;;8.27;6.47;;;;;;;;;;5051786;28;20472;-85
2023/01/01 11:26:17;;;;;;;7.40;6.72;;;;;;;;;;5051136;28;20467;-84
2023/01/01 11:28:57;;;;;;;6.40;5.80;;;;;;;;;;5051543;28;20378;-84
2023/01/01 11:31:25;;;;;;;5.20;4.65;;;;;;;;;;5051735;28;20730;-84
2023/01/01 11:33:52;;;;;;;6.88;4.68;;;;;;;;;;5043663;28;20374;-84
2023/01/01 11:36:31;;;;;;;6.10;5.22;;;;;;;;;;5051694;28;20381;-84
2023/01/01 11:39:15;;;;;;;5.63;5.03;;;;;;;;;;5051470;28;20369;-85
2023/01/01 11:41:46;;;;;;;5.32;4.57;;;;;;;;;;5051659;28;20374;-84
2023/01/01 11:44:14;;;;;;;5.10;4.07;;;;;;;;;;5051512;28;20381;-85
2023/01/01 11:46:40;;;;;;;4.85;4.35;;;;;;;;;;5051448;28;20871;-83
2023/01/01 11:49:21;;;;;;;5.35;4.30;;;;;;;;;;5051350;28;20377;-85
2023/01/01 11:51:46;;;;;;;4.87;3.70;;;;;;;;;;5039215;28;20431;-84
2023/01/01 11:54:31;;;;;;;3.90;3.40;;;;;;;;;;5051535;28;20369;-85
2023/01/01 11:57:12;;;;;;;4.57;3.50;;;;;;;;;;5051469;28;20380;-84
2023/01/01 11:59:45;;;;;;;4.88;3.47;;;;;;;;;;5051275;28;20739;-84
2023/01/01 12:02:31;;;;;;;5.63;3.60;;;;;;;;;;5051487;28;20401;-84
2023/01/01 12:05:03;;;;;;;5.75;3.33;;;;;;;;;;5051344;28;20904;-84
2023/01/01 12:07:33;;;;;;;5.18;3.55;;;;;;;;;;5051472;28;20396;-84
2023/01/01 12:10:02;;;;;;;5.88;3.47;;;;;;;;;;5051207;28;20875;-84
2023/01/01 12:12:34;;;;;;;2.88;2.35;;;;;;;;;;5051395;28;20378;-84
2023/01/01 12:15:15;;;;;;;4.15;3.00;;;;;;;;;;5051264;28;20373;-84
2023/01/01 12:17:43;;;;;;;4.83;2.47;;;;;;;;;;5051322;28;20738;-84
2023/01/01 12:20:16;;;;;;;2.78;1.98;;;;;;;;;;5051065;28;20381;-84
2023/01/01 12:22:42;;;;;;;4.40;2.07;;;;;;;;;;5051244;28;20378;-83
2023/01/01 12:25:15;;;;;;;4.57;2.03;;;;;;;;;;5051060;28;20838;-84
2023/01/01 12:28:00;;;;;;;2.60;2.30;;;;;;;;;;5051169;28;20384;-84
2023/01/01 12:30:39;;;;;;;2.90;2.05;;;;;;;;;;5051053;28;20790;-84
2023/01/01 12:33:15;;;;;;;2.80;1.80;;;;;;;;;;5051053;28;20382;-83
2023/01/01 12:35:41;;;;;;;5.10;2.20;;;;;;;;;;5033250;28;20428;-83
2023/01/01 12:38:21;;;;;;;3.43;2.30;;;;;;;;;;5052653;28;20417;-84
2023/01/01 12:40:53;;;;;;;4.28;2.20;;;;;;;;;;5055056;28;20386;-84
2023/01/01 12:43:38;;;;;;;4.93;1.80;;;;;;;;;;5051990;28;20431;-84
2023/01/01 12:46:07;;;;;;;2.90;1.58;;;;;;;;;;5054629;28;20409;-84
2023/01/01 12:48:36;;;;;;;2.97;1.90;;;;;;;;;;5054745;28;20803;-83
2023/01/01 12:51:10;;;;;;;3.17;2.00;;;;;;;;;;5054591;28;20389;-85
2023/01/01 12:53:42;;;;;;;4.80;1.67;;;;;;;;;;5054698;28;20377;-84
2023/01/01 12:56:08;;;;;;;2.80;1.80;;;;;;;;;;5036647;28;20909;-84
2023/01/01 12:58:40;;;;;;;3.03;1.83;;;;;;;;;;5054540;28;20385;-84
2023/01/01 13:01:35;;;;;;;3.03;2.20;;;;;;;;;;5054319;28;20495;-84
2023/01/01 13:04:07;;;;;;;4.70;2.58;;;;;;;;;;5033697;28;20393;-83
2023/01/01 13:06:39;;;;;;;5.05;3.10;;;;;;;;;;5054264;28;20412;-84
2023/01/01 13:09:14;;;;;;;3.53;2.80;;;;;;;;;;5054306;28;20405;-85
2023/01/01 13:11:42;;;;;;;4.77;2.40;;;;;;;;;;5054351;28;20978;-84
2023/01/01 13:14:08;;;;;;;3.33;2.03;;;;;;;;;;5054291;28;20758;-85
2023/01/01 13:16:37;;;;;;;3.97;1.98;;;;;;;;;;5054150;28;20385;-83
2023/01/01 13:19:04;;;;;;;2.92;1.90;;;;;;;;;;5054139;28;20460;-84
2023/01/01 13:21:31;;;;;;;3.47;1.80;;;;;;;;;;5052279;28;20831;-84
2023/01/01 13:24:11;;;;;;;4.83;2.03;;;;;;;;;;5051973;28;20850;-84
2023/01/01 13:26:37;;;;;;;5.05;2.15;;;;;;;;;;5047887;28;20504;-84
2023/01/01 13:29:08;;;;;;;3.58;1.70;;;;;;;;;;5054232;28;20381;-85
2023/01/01 13:31:37;;;;;;;3.80;1.87;;;;;;;;;;5053963;28;20381;-84
2023/01/01 13:34:22;;;;;;;3.83;1.85;;;;;;;;;;5053916;28;20370;-84
2023/01/01 13:36:48;;;;;;;3.00;2.08;;;;;;;;;;5053876;28;20380;-83
2023/01/01 13:39:34;;;;;;;3.17;1.75;;;;;;;;;;5053645;28;20393;-84
2023/01/01 13:42:00;;;;;;;2.20;1.60;;;;;;;;;;5053663;28;20551;-84
2023/01/01 13:44:26;;;;;;;3.27;1.87;;;;;;;;;;5043876;28;20506;-84
2023/01/01 13:47:01;;;;;;;2.50;1.33;;;;;;;;;;5042358;28;20504;-83
2023/01/01 13:49:44;;;;;;;3.63;1.63;;;;;;;;;;5052817;28;20846;-84
2023/01/01 13:52:13;;;;;;;2.28;1.58;;;;;;;;;;5053755;28;20395;-83
2023/01/01 13:54:58;;;;;;;3.85;1.52;;;;;;;;;;5053579;28;20378;-84
2023/01/01 13:57:42;;;;;;;2.70;1.48;;;;;;;;;;5053526;28;20450;-84
2023/01/01 14:00:24;;;;;;;2.78;1.40;;;;;;;;;;5053106;28;20874;-84
2023/01/01 14:02:57;;;;;;;2.63;1.40;;;;;;;;;;5053335;28;20409;-83
2023/01/01 14:05:23;;;;;;;3.85;1.60;;;;;;;;;;5053391;28;20540;-84
2023/01/01 14:07:50;;;;;;;3.47;1.40;;;;;;;;;;5053398;28;20874;-84
2023/01/01 14:10:26;;;;;;;4.28;1.80;;;;;;;;;;5053173;28;20382;-85
2023/01/01 14:12:53;;;;;;;2.70;2.08;;;;;;;;;;5053237;28;20380;-84
2023/01/01 14:15:24;;;;;;;6.93;2.30;;;;;;;;;;5053031;28;20384;-85
2023/01/01 14:17:50;;;;;;;3.47;1.87;;;;;;;;;;5053100;28;20382;-84
2023/01/01 14:20:18;;;;;;;2.47;1.70;;;;;;;;;;5052963;28;20860;-84
2023/01/01 14:22:44;;;;;;;3.95;2.10;;;;;;;;;;5052982;28;20413;-83
2023/01/01 14:25:15;;;;;;;3.25;1.85;;;;;;;;;;5052801;28;20400;-84
2023/01/01 14:27:42;;;;;;;4.15;1.75;;;;;;;;;;5053146;28;20421;-84
2023/01/01 14:30:15;;;;;;;4.15;1.83;;;;;;;;;;5052768;28;20374;-84
2023/01/01 14:32:42;;;;;;;4.03;1.83;;;;;;;;;;5052799;28;20446;-84
2023/01/01 14:35:12;;;;;;;5.38;1.95;;;;;;;;;;5052777;28;20389;-84